Time;durP1;ratioP1;P1;durP2;ratioP2;P2;SDS_P1;SDS_P2;PMS_P1;PMS_P2;Temp;Humidity;BMP_temperature;BMP_pressure;BME280_temperature;BME280_humidity;BME280_pressure;Samples;Min_cycle;Max_cycle;Signal;HPM_P1;HPM_P2
2021/01/17 06:00:42;;;;;;;34.00;15.60;;;-5.10;97.30;;;;;;5882836;23;20403;-74
2021/01/17 06:03:08;;;;;;;32.63;13.27;;;-5.20;97.30;;;;;;4880081;29;20415;-72
2021/01/17 06:05:34;;;;;;;32.77;13.87;;;-5.20;97.30;;;;;;4879490;29;20212;-72
2021/01/17 06:08:00;;;;;;;41.03;16.47;;;-5.30;97.30;;;;;;4880054;29;20421;-72
2021/01/17 06:10:29;;;;;;;37.57;16.30;;;-5.20;97.30;;;;;;4879041;29;20516;-72
2021/01/17 06:12:58;;;;;;;40.87;16.40;;;-5.20;97.30;;;;;;4862557;29;20419;-72
2021/01/17 06:15:31;;;;;;;34.07;15.17;;;-5.20;97.30;;;;;;4861350;29;20430;-72
2021/01/17 06:17:59;;;;;;;32.47;13.50;;;-5.30;97.30;;;;;;4863863;29;20443;-72
2021/01/17 06:20:26;;;;;;;38.60;15.57;;;-5.30;97.30;;;;;;4862254;29;20437;-71
2021/01/17 06:22:57;;;;;;;34.60;14.93;;;-5.40;97.30;;;;;;4861205;29;20430;-72
2021/01/17 06:25:33;;;;;;;39.20;14.63;;;-5.50;97.30;;;;;;4859580;29;20795;-71
2021/01/17 06:28:12;;;;;;;30.00;13.67;;;-5.60;97.30;;;;;;4863856;29;20432;-71
2021/01/17 06:30:39;;;;;;;35.90;15.10;;;-5.70;97.30;;;;;;4852613;29;20537;-71
2021/01/17 06:33:05;;;;;;;31.93;14.13;;;-5.70;97.30;;;;;;4853989;29;20487;-71
2021/01/17 06:35:35;;;;;;;40.23;14.83;;;-5.70;97.30;;;;;;4852404;29;20422;-70
2021/01/17 06:38:20;;;;;;;29.63;14.40;;;-5.80;97.30;;;;;;4850777;29;20427;-71
2021/01/17 06:40:49;;;;;;;37.30;15.00;;;-5.80;97.30;;;;;;4861920;29;20491;-70
2021/01/17 06:43:16;;;;;;;29.30;13.63;;;-5.80;97.30;;;;;;4860958;29;20444;-71
2021/01/17 06:45:44;;;;;;;25.20;12.80;;;-5.90;97.30;;;;;;4862446;29;20468;-71
2021/01/17 06:48:25;;;;;;;32.47;13.63;;;-5.90;97.30;;;;;;4866014;29;20446;-70
2021/01/17 06:50:51;;;;;;;29.80;13.40;;;-6.00;97.30;;;;;;4861077;29;20505;-70
2021/01/17 06:53:24;;;;;;;34.27;14.87;;;-6.00;97.30;;;;;;4860858;29;20413;-71
2021/01/17 06:56:16;;;;;;;29.90;12.40;;;-6.00;97.30;;;;;;4860680;29;20449;-71
2021/01/17 06:58:44;;;;;;;32.10;14.00;;;-6.00;97.30;;;;;;4858033;29;20449;-71
2021/01/17 07:01:10;;;;;;;37.47;14.50;;;-6.00;97.30;;;;;;4861114;29;20519;-71
2021/01/17 07:03:56;;;;;;;26.50;11.90;;;-6.00;97.30;;;;;;4860322;29;20938;-71
2021/01/17 07:06:50;;;;;;;29.63;13.03;;;-6.00;97.30;;;;;;4865055;29;20663;-70
2021/01/17 07:09:31;;;;;;;29.63;13.90;;;-6.00;97.30;;;;;;4867553;29;20429;-71
2021/01/17 07:12:05;;;;;;;33.43;12.47;;;-6.00;97.30;;;;;;4867464;29;20491;-70
2021/01/17 07:14:38;;;;;;;38.63;15.37;;;-6.00;97.30;;;;;;4851600;29;20419;-70
2021/01/17 07:17:08;;;;;;;38.37;15.80;;;-6.10;97.30;;;;;;4858370;29;20415;-69
2021/01/17 07:19:34;;;;;;;38.57;15.60;;;-6.10;97.30;;;;;;4861338;29;20414;-69
2021/01/17 07:22:04;;;;;;;62.20;21.23;;;-6.10;97.30;;;;;;4860421;29;21004;-70
2021/01/17 07:24:31;;;;;;;62.67;21.20;;;-6.10;97.30;;;;;;4859981;29;20428;-69
2021/01/17 07:27:34;;;;;;;84.53;24.63;;;-6.10;97.30;;;;;;4859944;29;20461;-69
2021/01/17 07:30:02;;;;;;;66.93;21.87;;;-6.20;97.30;;;;;;4865769;29;20509;-70
2021/01/17 07:32:36;;;;;;;65.33;20.77;;;-6.20;97.30;;;;;;4852296;29;20430;-70
2021/01/17 07:35:09;;;;;;;54.40;17.07;;;-6.20;97.30;;;;;;4870973;29;20418;-70
2021/01/17 07:37:41;;;;;;;42.47;16.60;;;-6.20;97.30;;;;;;4862061;29;20415;-70
2021/01/17 07:40:08;;;;;;;52.90;16.40;;;-6.10;97.30;;;;;;4861604;29;20413;-68
2021/01/17 07:42:35;;;;;;;57.67;18.97;;;-6.10;97.30;;;;;;4860129;29;20445;-69
2021/01/17 07:45:18;;;;;;;80.00;26.30;;;-6.10;97.30;;;;;;4859220;29;20423;-70
2021/01/17 07:47:46;;;;;;;75.70;22.87;;;-6.00;97.30;;;;;;4850939;29;20438;-70
2021/01/17 07:50:12;;;;;;;60.73;19.03;;;-5.90;97.30;;;;;;4857656;29;20419;-70
2021/01/17 07:52:43;;;;;;;44.20;18.00;;;-5.80;97.30;;;;;;4860226;29;20429;-71
2021/01/17 07:55:12;;;;;;;41.53;17.00;;;-5.80;97.30;;;;;;4861869;29;20409;-70
2021/01/17 07:57:38;;;;;;;30.13;13.20;;;-5.70;97.30;;;;;;4865478;29;20464;-71
2021/01/17 08:00:07;;;;;;;34.37;14.10;;;-5.60;97.30;;;;;;4864694;29;20430;-70
2021/01/17 08:02:35;;;;;;;30.33;13.80;;;-5.50;97.30;;;;;;4858594;29;20242;-71
2021/01/17 08:05:02;;;;;;;39.57;12.90;;;-5.40;97.30;;;;;;4860983;29;20430;-70
2021/01/17 08:07:32;;;;;;;34.20;13.60;;;-5.40;97.30;;;;;;4859649;29;20995;-71
2021/01/17 08:10:02;;;;;;;28.03;12.77;;;-5.30;97.30;;;;;;4860949;29;20426;-71
2021/01/17 08:12:30;;;;;;;33.20;12.80;;;-5.20;97.30;;;;;;4861192;29;20435;-71
2021/01/17 08:15:12;;;;;;;38.20;14.53;;;-5.10;97.30;;;;;;4861553;29;20434;-71
2021/01/17 08:17:37;;;;;;;33.93;13.23;;;-5.00;97.30;;;;;;4859742;29;20521;-70
2021/01/17 08:20:06;;;;;;;28.57;13.07;;;-4.90;97.30;;;;;;4860721;29;20843;-70
2021/01/17 08:22:31;;;;;;;34.27;13.57;;;-4.80;97.30;;;;;;4859704;29;20478;-70
2021/01/17 08:25:03;;;;;;;35.37;12.00;;;-4.70;97.30;;;;;;4859653;29;20906;-69
2021/01/17 08:27:30;;;;;;;30.40;14.03;;;-4.60;97.30;;;;;;4859447;29;20179;-70
2021/01/17 08:30:02;;;;;;;31.07;14.40;;;-4.50;97.30;;;;;;4860647;29;20905;-71
2021/01/17 08:32:38;;;;;;;25.93;11.70;;;-4.40;97.30;;;;;;4868041;29;20466;-70
2021/01/17 08:35:25;;;;;;;26.87;12.33;;;-4.30;97.30;;;;;;4852256;29;20454;-69
2021/01/17 08:38:07;;;;;;;27.93;12.80;;;-4.10;97.30;;;;;;4856942;29;20447;-69
2021/01/17 08:40:33;;;;;;;26.13;11.40;;;-4.00;97.30;;;;;;4864468;29;20518;-70
2021/01/17 08:43:04;;;;;;;21.90;9.90;;;-3.90;97.30;;;;;;4864418;29;20499;-71
2021/01/17 08:45:32;;;;;;;22.00;11.27;;;-3.80;97.30;;;;;;4848895;29;20553;-71
2021/01/17 08:48:00;;;;;;;24.60;10.93;;;-3.60;97.30;;;;;;4866869;29;20854;-71
2021/01/17 08:50:32;;;;;;;21.90;11.30;;;-3.50;97.30;;;;;;4850985;29;20910;-72
2021/01/17 08:53:12;;;;;;;25.77;11.40;;;-3.40;97.30;;;;;;4866856;29;20428;-71
2021/01/17 08:55:41;;;;;;;25.70;12.10;;;-3.30;97.30;;;;;;4850544;29;20514;-71
2021/01/17 08:58:08;;;;;;;23.67;11.60;;;-3.20;97.30;;;;;;4850670;29;20415;-71
2021/01/17 09:00:48;;;;;;;23.17;12.13;;;-3.10;97.30;;;;;;4853544;29;20431;-73
2021/01/17 09:03:28;;;;;;;25.50;11.20;;;-3.00;97.30;;;;;;4860238;29;20449;-71
2021/01/17 09:05:59;;;;;;;24.53;11.97;;;-2.90;97.30;;;;;;4859393;29;20458;-72
2021/01/17 09:08:26;;;;;;;27.40;11.57;;;-2.80;97.30;;;;;;4866984;29;20446;-72
2021/01/17 09:10:52;;;;;;;26.80;10.60;;;-2.70;97.30;;;;;;4854151;29;20498;-72
2021/01/17 09:13:23;;;;;;;27.90;12.87;;;-2.60;97.30;;;;;;4866497;29;20429;-72
2021/01/17 09:15:59;;;;;;;29.67;13.60;;;-2.50;97.30;;;;;;4865292;29;20423;-71
2021/01/17 09:18:26;;;;;;;33.87;14.33;;;-2.40;97.30;;;;;;4865254;29;20456;-72
2021/01/17 09:20:54;;;;;;;29.20;13.30;;;-2.40;97.30;;;;;;4862431;29;20443;-74
2021/01/17 09:23:21;;;;;;;37.17;15.67;;;-2.30;97.30;;;;;;4865928;29;20454;-73
2021/01/17 09:25:54;;;;;;;28.60;12.97;;;-2.20;97.30;;;;;;4870219;29;20466;-72
2021/01/17 09:28:20;;;;;;;27.13;12.63;;;-2.20;97.30;;;;;;4862676;29;20422;-74
2021/01/17 09:30:59;;;;;;;24.90;11.57;;;-2.10;97.30;;;;;;4850409;29;20452;-73
2021/01/17 09:33:27;;;;;;;20.03;10.93;;;-2.00;97.30;;;;;;4844335;29;20424;-73
2021/01/17 09:35:54;;;;;;;26.63;11.80;;;-1.90;97.30;;;;;;4844359;29;20868;-74
2021/01/17 09:38:22;;;;;;;22.63;10.77;;;-1.80;97.30;;;;;;4845042;29;20801;-75
2021/01/17 09:40:53;;;;;;;27.03;11.87;;;-1.70;97.30;;;;;;4844246;29;20446;-74
2021/01/17 09:43:20;;;;;;;24.37;11.20;;;-1.60;97.30;;;;;;4845623;29;20783;-75
2021/01/17 09:45:53;;;;;;;25.50;11.73;;;-1.60;97.30;;;;;;4859015;29;20475;-75
2021/01/17 09:50:55;;;;;;;25.33;10.97;;;-1.40;97.30;;;;;;5775360;23;20991;-70
2021/01/17 09:53:21;;;;;;;27.97;11.87;;;-1.30;97.30;;;;;;4916400;29;20480;-71
2021/01/17 09:55:51;;;;;;;23.80;11.53;;;-1.30;97.30;;;;;;4919083;29;20412;-71
2021/01/17 09:58:18;;;;;;;21.70;10.50;;;-1.20;97.30;;;;;;4913867;29;20818;-71
2021/01/17 10:00:45;;;;;;;24.03;11.33;;;-1.10;97.30;;;;;;4913864;29;20437;-70
2021/01/17 10:03:13;;;;;;;24.47;12.63;;;-1.10;97.30;;;;;;4900520;29;21015;-71
2021/01/17 10:05:40;;;;;;;20.90;10.23;;;-1.00;97.30;;;;;;4898987;29;20469;-70
2021/01/17 10:08:11;;;;;;;24.47;11.83;;;-0.90;97.30;;;;;;4899302;29;20508;-70
2021/01/17 10:10:38;;;;;;;23.90;11.60;;;-0.80;97.30;;;;;;4899127;29;20444;-70
2021/01/17 10:13:08;;;;;;;25.47;11.30;;;-0.70;97.30;;;;;;4899090;29;20452;-70
2021/01/17 10:15:35;;;;;;;25.97;11.53;;;-0.60;97.30;;;;;;4900446;29;20425;-70
2021/01/17 10:18:01;;;;;;;21.10;10.87;;;-0.40;97.30;;;;;;4898767;29;20437;-69
2021/01/17 10:20:29;;;;;;;24.00;11.50;;;-0.30;97.30;;;;;;4899746;29;20413;-69
2021/01/17 10:23:05;;;;;;;22.63;10.50;;;-0.20;97.30;;;;;;4898660;29;20188;-70
2021/01/17 10:25:32;;;;;;;20.20;11.10;;;-0.20;97.30;;;;;;4898973;29;20460;-71
2021/01/17 10:28:04;;;;;;;22.27;10.00;;;0.00;97.30;;;;;;4899274;29;20421;-70
2021/01/17 10:30:32;;;;;;;19.43;8.90;;;0.00;97.30;;;;;;4898532;29;20616;-69
2021/01/17 10:33:06;;;;;;;15.10;8.20;;;0.10;97.30;;;;;;4880070;29;20418;-70
2021/01/17 10:35:51;;;;;;;19.73;10.07;;;0.20;97.30;;;;;;4880444;29;20449;-69
2021/01/17 10:38:20;;;;;;;24.80;10.43;;;0.30;96.70;;;;;;4880060;29;20438;-69
2021/01/17 10:40:47;;;;;;;17.93;8.73;;;0.40;96.30;;;;;;4880438;29;20458;-70
2021/01/17 10:43:15;;;;;;;17.83;9.00;;;0.40;95.10;;;;;;4879640;29;20423;-69
2021/01/17 10:45:46;;;;;;;15.07;8.27;;;0.50;94.90;;;;;;4879373;29;20468;-69
2021/01/17 10:48:15;;;;;;;14.93;8.10;;;0.70;95.10;;;;;;4880652;29;20438;-69
2021/01/17 10:50:46;;;;;;;15.10;7.73;;;0.90;94.60;;;;;;4880610;29;20464;-69
2021/01/17 10:53:39;;;;;;;14.23;7.90;;;1.00;94.60;;;;;;4880505;29;20418;-70
2021/01/17 10:56:09;;;;;;;16.10;7.37;;;1.10;93.40;;;;;;4879393;29;20418;-69
2021/01/17 10:58:43;;;;;;;16.20;8.60;;;1.20;92.70;;;;;;4884051;29;20421;-69
2021/01/17 11:01:09;;;;;;;19.63;8.93;;;1.30;92.50;;;;;;4897750;29;20452;-68
2021/01/17 11:03:34;;;;;;;15.93;7.57;;;1.50;92.70;;;;;;4897898;29;20517;-69
2021/01/17 11:06:15;;;;;;;20.37;9.30;;;1.60;92.00;;;;;;4897561;29;20260;-69
2021/01/17 11:08:56;;;;;;;15.13;8.50;;;1.60;91.10;;;;;;4899154;29;20237;-68
2021/01/17 11:11:28;;;;;;;20.10;10.20;;;1.80;91.10;;;;;;4897436;29;20445;-69
2021/01/17 11:14:05;;;;;;;17.37;8.00;;;1.60;89.40;;;;;;4897974;29;20791;-69
2021/01/17 11:16:43;;;;;;;18.70;7.57;;;1.50;89.70;;;;;;4897679;29;20483;-69
2021/01/17 11:19:11;;;;;;;17.00;9.10;;;1.70;90.40;;;;;;4899264;29;20421;-69
2021/01/17 11:21:37;;;;;;;12.37;7.10;;;1.80;89.70;;;;;;4898568;29;20935;-69
2021/01/17 11:24:04;;;;;;;13.20;8.27;;;1.90;89.60;;;;;;4897923;29;20432;-69
2021/01/17 11:26:30;;;;;;;15.47;8.40;;;2.10;89.50;;;;;;4897343;29;20466;-69
2021/01/17 11:28:57;;;;;;;16.53;8.53;;;2.20;88.70;;;;;;4898705;29;20425;-69
2021/01/17 11:31:24;;;;;;;18.10;9.73;;;2.00;87.70;;;;;;4897181;29;20558;-68
2021/01/17 11:33:51;;;;;;;45.40;19.53;;;2.10;88.40;;;;;;4898105;29;20428;-69
2021/01/17 11:36:25;;;;;;;31.33;16.23;;;2.20;88.50;;;;;;4898544;29;20414;-69
2021/01/17 11:38:58;;;;;;;13.17;8.33;;;2.30;87.70;;;;;;4897483;29;20489;-69
2021/01/17 11:41:36;;;;;;;29.20;13.07;;;2.40;87.50;;;;;;4897335;29;20806;-69
2021/01/17 11:44:19;;;;;;;15.20;7.63;;;2.60;87.10;;;;;;4898697;29;20435;-68
2021/01/17 11:46:46;;;;;;;16.63;8.13;;;2.60;86.50;;;;;;4897061;29;20510;-68
2021/01/17 11:49:12;;;;;;;13.40;7.80;;;2.80;87.60;;;;;;4898519;29;20448;-69
2021/01/17 11:51:39;;;;;;;10.90;6.90;;;2.80;86.10;;;;;;4896390;29;20473;-69
2021/01/17 11:54:12;;;;;;;12.50;6.80;;;2.70;85.60;;;;;;4897094;29;20418;-69
2021/01/17 11:56:38;;;;;;;13.67;7.50;;;2.70;85.80;;;;;;4897090;29;20422;-69
2021/01/17 11:59:04;;;;;;;20.23;10.60;;;2.80;86.10;;;;;;4897022;29;20430;-69
2021/01/17 12:01:30;;;;;;;19.53;10.20;;;3.00;85.90;;;;;;4896906;29;20871;-69
2021/01/17 12:04:04;;;;;;;18.27;8.07;;;3.30;86.00;;;;;;4898302;29;20422;-70
2021/01/17 12:06:30;;;;;;;15.80;7.73;;;3.50;85.10;;;;;;4897526;29;20465;-69
2021/01/17 12:09:01;;;;;;;12.83;6.77;;;3.60;84.40;;;;;;4899012;29;20461;-69
2021/01/17 12:11:35;;;;;;;13.43;6.40;;;3.60;84.20;;;;;;4897013;29;20441;-69
2021/01/17 12:14:08;;;;;;;9.30;6.33;;;3.60;84.40;;;;;;4898082;29;20914;-68
2021/01/17 12:16:35;;;;;;;12.37;6.53;;;3.70;85.00;;;;;;4896921;29;20520;-69
2021/01/17 12:19:02;;;;;;;12.20;6.30;;;3.90;83.60;;;;;;4897161;29;20441;-68
2021/01/17 12:21:29;;;;;;;10.87;6.77;;;4.00;84.30;;;;;;4896530;29;20437;-68
2021/01/17 12:23:56;;;;;;;10.10;6.30;;;4.10;83.40;;;;;;4897896;29;20488;-69
2021/01/17 12:26:22;;;;;;;8.20;5.27;;;4.30;83.50;;;;;;4896585;29;21004;-69
2021/01/17 12:28:48;;;;;;;11.53;6.20;;;4.40;82.60;;;;;;4896651;29;20421;-69
2021/01/17 12:31:19;;;;;;;11.90;6.50;;;4.60;82.10;;;;;;4896334;29;20438;-69
2021/01/17 12:33:45;;;;;;;12.13;6.63;;;4.70;81.90;;;;;;4897799;29;20409;-69
2021/01/17 12:36:13;;;;;;;12.13;6.63;;;4.80;80.70;;;;;;4896414;29;20798;-69
2021/01/17 12:38:39;;;;;;;21.67;10.70;;;5.00;80.80;;;;;;4897774;29;20737;-69
2021/01/17 12:41:10;;;;;;;17.30;10.07;;;5.10;81.50;;;;;;4897403;29;20445;-69
2021/01/17 12:43:38;;;;;;;20.23;9.37;;;5.10;82.40;;;;;;4884241;29;20452;-69
2021/01/17 12:46:05;;;;;;;24.10;12.37;;;5.10;82.40;;;;;;4881220;29;20977;-69
2021/01/17 12:48:36;;;;;;;14.50;8.53;;;5.20;82.80;;;;;;4886087;29;20507;-69
2021/01/17 12:51:02;;;;;;;9.67;6.30;;;5.40;81.70;;;;;;4899645;29;20465;-68
2021/01/17 12:53:28;;;;;;;12.17;6.30;;;5.50;79.80;;;;;;4900951;29;20936;-68
2021/01/17 12:55:55;;;;;;;12.57;7.20;;;5.40;79.20;;;;;;4900145;29;20942;-68
2021/01/17 12:58:21;;;;;;;12.63;6.83;;;5.50;79.90;;;;;;4897805;29;20433;-69
2021/01/17 13:00:47;;;;;;;12.80;6.77;;;5.50;79.10;;;;;;4896685;29;20520;-69
2021/01/17 13:03:13;;;;;;;12.43;5.80;;;5.60;78.90;;;;;;4899311;29;20845;-71
2021/01/17 13:05:39;;;;;;;11.20;6.10;;;5.60;78.00;;;;;;4899346;29;20460;-70
2021/01/17 13:08:05;;;;;;;8.77;5.60;;;5.60;78.30;;;;;;4900814;29;20978;-70
2021/01/17 13:10:31;;;;;;;9.67;6.20;;;5.60;77.60;;;;;;4900931;29;20177;-71
2021/01/17 13:12:57;;;;;;;11.50;6.60;;;5.70;78.10;;;;;;4899751;29;20428;-70
2021/01/17 13:15:26;;;;;;;11.17;5.80;;;5.90;77.00;;;;;;4901086;29;20418;-70
2021/01/17 13:17:52;;;;;;;11.43;6.20;;;6.00;77.10;;;;;;4901029;29;20177;-70
2021/01/17 13:20:19;;;;;;;10.10;5.67;;;6.00;77.00;;;;;;4900890;29;20926;-71
2021/01/17 13:22:45;;;;;;;12.40;7.47;;;5.80;76.60;;;;;;4899673;29;20429;-70
2021/01/17 13:25:12;;;;;;;13.10;7.93;;;6.00;77.20;;;;;;4899481;29;20777;-71
2021/01/17 13:27:38;;;;;;;12.07;6.90;;;6.00;77.30;;;;;;4899642;29;20275;-70
2021/01/17 13:30:07;;;;;;;12.27;6.20;;;6.10;77.80;;;;;;4899140;29;20425;-69
2021/01/17 13:32:37;;;;;;;11.47;6.80;;;6.10;77.30;;;;;;4898836;29;20936;-71
2021/01/17 13:35:07;;;;;;;14.20;8.53;;;6.00;77.90;;;;;;4893368;29;21017;-70
2021/01/17 13:37:32;;;;;;;12.90;7.77;;;6.10;77.60;;;;;;4899154;29;21001;-70
2021/01/17 13:40:00;;;;;;;14.87;8.30;;;5.90;77.40;;;;;;4899710;29;20501;-70
2021/01/17 13:42:27;;;;;;;15.80;8.00;;;5.80;77.80;;;;;;4899253;29;20237;-71
2021/01/17 13:44:53;;;;;;;15.37;9.03;;;5.50;78.10;;;;;;4900350;29;20428;-69
2021/01/17 13:47:26;;;;;;;14.87;8.57;;;5.40;78.60;;;;;;4898401;29;20548;-70
2021/01/17 13:49:54;;;;;;;17.13;8.57;;;5.60;78.60;;;;;;4899051;29;20448;-70
2021/01/17 13:52:20;;;;;;;16.83;9.73;;;5.60;78.30;;;;;;4898708;29;20575;-69
2021/01/17 13:54:47;;;;;;;18.03;8.97;;;5.90;78.30;;;;;;4901354;29;20517;-70
2021/01/17 13:57:13;;;;;;;18.70;9.43;;;6.00;78.10;;;;;;4900077;29;20872;-70
2021/01/17 13:59:42;;;;;;;17.17;8.90;;;5.90;77.90;;;;;;4902938;29;21009;-71
2021/01/17 14:02:16;;;;;;;16.80;9.90;;;5.70;77.90;;;;;;4905672;29;20444;-71
2021/01/17 14:04:42;;;;;;;16.90;8.97;;;5.30;78.40;;;;;;4897636;29;20420;-71
2021/01/17 14:07:16;;;;;;;19.30;9.93;;;4.50;78.90;;;;;;4899653;29;20537;-71
2021/01/17 14:09:42;;;;;;;19.57;9.80;;;3.90;79.80;;;;;;4906372;29;20426;-70
2021/01/17 14:12:15;;;;;;;21.03;10.53;;;3.50;80.80;;;;;;4906615;29;20552;-70
2021/01/17 14:14:45;;;;;;;16.60;8.90;;;3.30;82.00;;;;;;4902689;29;20228;-70
2021/01/17 14:17:14;;;;;;;17.67;9.10;;;3.10;82.60;;;;;;4909155;29;20926;-70
2021/01/17 14:19:40;;;;;;;18.90;9.53;;;3.00;82.90;;;;;;4896629;29;20429;-70
2021/01/17 14:22:07;;;;;;;16.73;9.17;;;2.90;82.80;;;;;;4898292;29;20449;-70
2021/01/17 14:24:33;;;;;;;19.43;9.50;;;2.80;83.00;;;;;;4899236;29;20422;-70
2021/01/17 14:27:02;;;;;;;14.53;8.53;;;2.90;83.50;;;;;;4899080;29;20487;-70
2021/01/17 14:29:28;;;;;;;20.80;10.10;;;3.00;83.40;;;;;;4898106;29;20421;-69
2021/01/17 14:31:54;;;;;;;19.53;9.63;;;3.30;83.30;;;;;;4899588;29;20441;-71
2021/01/17 14:34:20;;;;;;;14.97;7.93;;;3.70;82.40;;;;;;4898114;29;20299;-70
2021/01/17 14:36:48;;;;;;;15.93;8.70;;;4.00;81.90;;;;;;4899516;29;20921;-69
2021/01/17 14:39:22;;;;;;;14.73;8.73;;;4.10;81.40;;;;;;4898788;29;20177;-71
2021/01/17 14:41:59;;;;;;;15.70;8.87;;;3.90;81.10;;;;;;4898313;29;20509;-69
2021/01/17 14:44:26;;;;;;;20.03;10.33;;;3.60;81.40;;;;;;4898242;29;20464;-70
2021/01/17 14:46:53;;;;;;;23.07;10.70;;;3.10;82.20;;;;;;4899138;29;20469;-70
2021/01/17 14:49:21;;;;;;;18.10;10.27;;;2.80;82.70;;;;;;4899439;29;20497;-69
2021/01/17 14:51:47;;;;;;;19.60;10.80;;;2.60;83.40;;;;;;4897656;29;20479;-69
2021/01/17 14:54:15;;;;;;;25.00;10.83;;;2.20;84.20;;;;;;4895276;29;20425;-72
2021/01/17 14:56:44;;;;;;;22.60;11.70;;;1.90;84.70;;;;;;4898191;29;20211;-70
2021/01/17 14:59:11;;;;;;;19.83;10.17;;;1.60;85.40;;;;;;4898115;29;20512;-70
2021/01/17 15:01:38;;;;;;;23.70;11.67;;;1.50;86.10;;;;;;4897968;29;20949;-70
2021/01/17 15:04:05;;;;;;;25.30;11.90;;;1.30;86.70;;;;;;4899255;29;20457;-70
2021/01/17 15:06:31;;;;;;;22.93;10.63;;;1.10;86.90;;;;;;4897918;29;20473;-69
2021/01/17 15:08:56;;;;;;;20.47;11.23;;;0.80;87.30;;;;;;4896877;29;20446;-70
2021/01/17 15:11:23;;;;;;;24.33;11.17;;;0.70;87.70;;;;;;4898460;29;20429;-71
2021/01/17 15:13:50;;;;;;;28.90;12.50;;;0.50;88.30;;;;;;4892783;29;20636;-70
2021/01/17 15:16:17;;;;;;;19.60;10.83;;;0.40;88.70;;;;;;4897305;29;20449;-70
2021/01/17 15:18:46;;;;;;;17.53;9.60;;;0.30;89.00;;;;;;4897574;29;20840;-69
2021/01/17 15:21:12;;;;;;;23.13;11.27;;;0.20;89.30;;;;;;4898465;29;20492;-69
2021/01/17 15:23:41;;;;;;;22.70;11.00;;;0.10;89.50;;;;;;4898511;29;20445;-69
2021/01/17 15:26:07;;;;;;;19.43;9.70;;;0.00;89.90;;;;;;4897437;29;20216;-69
2021/01/17 15:28:33;;;;;;;22.77;10.53;;;-0.10;90.10;;;;;;4897682;29;20437;-69
2021/01/17 15:30:59;;;;;;;24.43;11.00;;;-0.20;90.30;;;;;;4898643;29;20430;-68
2021/01/17 15:33:30;;;;;;;22.53;9.97;;;-0.30;90.50;;;;;;4897495;29;20473;-69
2021/01/17 15:35:57;;;;;;;25.30;11.87;;;-0.30;90.80;;;;;;4897044;29;20426;-69
2021/01/17 15:38:23;;;;;;;21.10;10.53;;;-0.40;90.90;;;;;;4897192;29;20422;-69
2021/01/17 15:40:49;;;;;;;25.97;11.37;;;-0.40;91.20;;;;;;4898042;29;20923;-68
2021/01/17 15:43:15;;;;;;;17.87;9.63;;;-0.50;91.40;;;;;;4897116;29;20421;-69
2021/01/17 15:45:45;;;;;;;23.73;11.57;;;-0.50;91.60;;;;;;4898390;29;20546;-69
2021/01/17 15:48:11;;;;;;;23.33;10.70;;;-0.60;91.90;;;;;;4893386;29;20441;-69
2021/01/17 15:50:36;;;;;;;24.37;12.73;;;-0.60;92.20;;;;;;4897951;29;20449;-69
2021/01/17 15:53:05;;;;;;;23.53;11.60;;;-0.70;92.60;;;;;;4894761;29;20182;-68
2021/01/17 15:55:39;;;;;;;26.07;11.63;;;-0.80;92.90;;;;;;4896392;29;20188;-69
2021/01/17 15:58:06;;;;;;;27.40;12.23;;;-0.80;93.00;;;;;;4896664;29;20431;-69
2021/01/17 16:00:31;;;;;;;25.23;12.43;;;-0.80;93.20;;;;;;4897671;29;20418;-71
2021/01/17 16:02:57;;;;;;;20.90;11.93;;;-0.80;93.40;;;;;;4896831;29;20942;-69
2021/01/17 16:05:22;;;;;;;34.37;15.60;;;-0.90;93.60;;;;;;4897834;29;20180;-70
2021/01/17 16:07:50;;;;;;;30.83;13.70;;;-0.90;93.60;;;;;;4896755;29;20212;-71
2021/01/17 16:10:17;;;;;;;31.03;13.60;;;-1.10;93.70;;;;;;4896481;29;20654;-73
2021/01/17 16:12:43;;;;;;;24.50;12.23;;;-1.20;93.90;;;;;;4896779;29;20934;-70
2021/01/17 16:15:10;;;;;;;28.93;12.73;;;-1.30;94.10;;;;;;4897027;29;20417;-70
2021/01/17 16:17:37;;;;;;;27.53;15.67;;;-1.40;94.20;;;;;;4897345;29;20449;-70
2021/01/17 16:20:05;;;;;;;30.40;12.90;;;-1.50;94.50;;;;;;4895899;29;20520;-70
2021/01/17 16:22:31;;;;;;;25.43;13.10;;;-1.50;94.70;;;;;;4897936;29;20426;-69
2021/01/17 16:24:57;;;;;;;27.47;14.00;;;-1.50;94.80;;;;;;4897692;29;20418;-69
2021/01/17 16:27:22;;;;;;;25.83;12.87;;;-1.50;95.10;;;;;;4897706;29;20465;-69
2021/01/17 16:29:48;;;;;;;23.00;12.73;;;-1.50;95.20;;;;;;4896897;29;20192;-73
2021/01/17 16:32:14;;;;;;;26.40;12.27;;;-1.50;95.10;;;;;;4895629;29;20197;-70
2021/01/17 16:34:40;;;;;;;30.47;13.40;;;-1.50;95.20;;;;;;4897599;29;20414;-70
2021/01/17 16:37:06;;;;;;;26.50;13.40;;;-1.60;95.40;;;;;;4896463;29;20421;-71
2021/01/17 16:39:35;;;;;;;27.50;13.40;;;-1.70;95.50;;;;;;4896496;29;20188;-70
2021/01/17 16:42:05;;;;;;;26.50;13.60;;;-1.70;95.60;;;;;;4896763;29;20853;-70
2021/01/17 16:44:32;;;;;;;30.90;14.10;;;-1.70;95.80;;;;;;4896714;29;20417;-70
2021/01/17 16:46:59;;;;;;;27.33;14.17;;;-1.80;96.10;;;;;;4897411;29;20504;-70
2021/01/17 16:49:24;;;;;;;26.97;13.60;;;-1.80;96.10;;;;;;4895588;29;20425;-70
2021/01/17 16:51:50;;;;;;;25.77;13.90;;;-1.80;96.10;;;;;;4895612;29;20474;-69
2021/01/17 16:54:20;;;;;;;28.87;13.83;;;-1.90;96.10;;;;;;4897545;29;20175;-70
2021/01/17 16:56:46;;;;;;;25.77;13.37;;;-1.90;96.30;;;;;;4896273;29;20181;-70
2021/01/17 16:59:12;;;;;;;29.17;13.70;;;-1.90;96.40;;;;;;4896416;29;20418;-70
2021/01/17 17:01:42;;;;;;;30.63;14.43;;;-1.90;96.40;;;;;;4895975;29;20197;-70
2021/01/17 17:04:10;;;;;;;29.27;13.47;;;-2.00;96.50;;;;;;4897311;29;20177;-70
2021/01/17 17:06:36;;;;;;;30.07;13.63;;;-2.00;96.60;;;;;;4896378;29;20471;-71
2021/01/17 17:09:04;;;;;;;30.30;13.43;;;-2.00;96.70;;;;;;4896859;29;20532;-70
2021/01/17 17:11:30;;;;;;;33.20;14.93;;;-2.10;96.90;;;;;;4897217;29;20469;-70
2021/01/17 17:13:56;;;;;;;25.43;12.70;;;-2.10;97.00;;;;;;4896394;29;20410;-71
2021/01/17 17:16:25;;;;;;;30.13;14.30;;;-2.10;97.10;;;;;;4896253;29;20429;-70
2021/01/17 17:18:51;;;;;;;25.87;12.87;;;-2.20;97.20;;;;;;4896183;29;20471;-70
2021/01/17 17:21:22;;;;;;;26.50;12.70;;;-2.20;97.20;;;;;;4897210;29;20441;-70
2021/01/17 17:23:49;;;;;;;31.70;13.43;;;-2.20;97.30;;;;;;4896351;29;20421;-70
2021/01/17 17:26:22;;;;;;;27.00;12.57;;;-2.30;97.30;;;;;;4896207;29;20898;-70
2021/01/17 17:28:48;;;;;;;26.10;13.83;;;-2.40;97.30;;;;;;4896262;29;20831;-70
2021/01/17 17:31:14;;;;;;;27.67;13.80;;;-2.50;97.30;;;;;;4897198;29;20505;-70
2021/01/17 17:33:41;;;;;;;31.67;15.40;;;-2.50;97.30;;;;;;4899046;29;20852;-69
2021/01/17 17:36:07;;;;;;;29.17;13.30;;;-2.50;97.30;;;;;;4899648;29;20943;-69
2021/01/17 17:38:34;;;;;;;30.67;14.20;;;-2.50;97.30;;;;;;4899567;29;20420;-68
2021/01/17 17:40:59;;;;;;;29.10;14.40;;;-2.60;97.30;;;;;;4899702;29;20445;-69
2021/01/17 17:43:25;;;;;;;32.97;15.37;;;-2.60;97.30;;;;;;4899056;29;20425;-69
2021/01/17 17:45:51;;;;;;;27.87;15.00;;;-2.70;97.30;;;;;;4899165;29;20260;-69
2021/01/17 17:48:17;;;;;;;38.90;17.20;;;-2.70;97.30;;;;;;4899418;29;20181;-69
2021/01/17 17:50:44;;;;;;;29.40;16.70;;;-2.80;97.30;;;;;;4899036;29;20304;-70
2021/01/17 17:53:14;;;;;;;36.23;16.40;;;-2.80;97.30;;;;;;4900935;29;20714;-72
2021/01/17 17:55:40;;;;;;;37.50;17.33;;;-2.90;97.30;;;;;;4918176;29;20456;-70
2021/01/17 17:58:06;;;;;;;35.53;16.67;;;-3.00;97.30;;;;;;4918232;29;20516;-70
2021/01/17 18:00:31;;;;;;;38.50;18.57;;;-3.00;97.30;;;;;;4917958;29;20172;-70
2021/01/17 18:02:57;;;;;;;37.00;16.93;;;-3.10;97.30;;;;;;4919466;29;20433;-71
2021/01/17 18:05:24;;;;;;;38.87;15.93;;;-3.10;97.30;;;;;;4918476;29;20212;-70
2021/01/17 18:07:51;;;;;;;31.60;15.00;;;-3.20;97.30;;;;;;4918139;29;20851;-70
2021/01/17 18:10:24;;;;;;;31.17;14.83;;;-3.30;97.30;;;;;;4919187;29;20766;-71
2021/01/17 18:12:50;;;;;;;36.87;14.97;;;-3.40;97.30;;;;;;4917891;29;20449;-70
2021/01/17 18:15:17;;;;;;;31.20;14.27;;;-3.40;97.30;;;;;;4917895;29;20431;-70
2021/01/17 18:17:50;;;;;;;33.83;16.27;;;-3.50;97.30;;;;;;4917951;29;20512;-70
2021/01/17 18:20:20;;;;;;;28.93;14.33;;;-3.40;97.30;;;;;;4918719;29;20464;-70
2021/01/17 18:22:46;;;;;;;31.00;13.53;;;-3.40;97.30;;;;;;4918979;29;20427;-71
2021/01/17 18:25:20;;;;;;;29.70;13.57;;;-3.40;97.30;;;;;;4918127;29;20805;-71
2021/01/17 18:27:46;;;;;;;27.57;13.30;;;-3.50;97.30;;;;;;4919889;29;20460;-70
2021/01/17 18:30:13;;;;;;;24.30;12.20;;;-3.50;97.30;;;;;;4917543;29;20429;-70
2021/01/17 18:32:42;;;;;;;29.40;12.80;;;-3.60;97.30;;;;;;4918504;29;20436;-70
2021/01/17 18:35:12;;;;;;;32.57;15.27;;;-3.60;97.30;;;;;;4918852;29;20907;-70
2021/01/17 18:37:40;;;;;;;47.37;19.07;;;-3.60;97.30;;;;;;4917269;29;20425;-70
2021/01/17 18:40:08;;;;;;;41.70;17.37;;;-3.80;97.30;;;;;;4918495;29;20424;-71
2021/01/17 18:42:34;;;;;;;49.13;19.83;;;-3.80;97.30;;;;;;4917265;29;20475;-71
2021/01/17 18:45:00;;;;;;;54.37;19.23;;;-3.90;97.30;;;;;;4917497;29;20421;-70